Time;durP1;ratioP1;P1;durP2;ratioP2;P2;SDS_P1;SDS_P2;PMS_P1;PMS_P2;Temp;Humidity;BMP_temperature;BMP_pressure;BME280_temperature;BME280_humidity;BME280_pressure;Samples;Min_cycle;Max_cycle;Signal;HPM_P1;HPM_P2
2022/05/09 01:12:38;;;;;;;16.65;6.10;;;4.60;90.40;;;;;;4230064;23;20061;-80
2022/05/09 01:15:25;;;;;;;13.95;5.85;;;4.50;90.40;;;;;;4809322;29;20140;-79
2022/05/09 01:18:28;;;;;;;22.95;6.65;;;4.60;90.50;;;;;;4812326;29;20049;-80
2022/05/09 01:21:06;;;;;;;14.90;6.47;;;4.40;90.70;;;;;;4814529;29;20465;-80
2022/05/09 01:23:49;;;;;;;21.30;7.35;;;4.50;90.40;;;;;;4813957;29;20034;-77
2022/05/09 01:26:17;;;;;;;18.17;6.40;;;4.50;90.70;;;;;;4817692;29;20046;-79
2022/05/09 01:29:02;;;;;;;14.70;6.35;;;4.50;91.00;;;;;;4797169;29;20038;-80
2022/05/09 01:31:35;;;;;;;11.45;5.80;;;4.50;90.80;;;;;;4794039;29;20042;-80
2022/05/09 01:34:17;;;;;;;16.15;6.13;;;4.40;90.70;;;;;;4792590;29;20125;-80
2022/05/09 01:36:56;;;;;;;15.93;6.05;;;4.40;90.50;;;;;;4777808;29;20480;-81
2022/05/09 01:39:39;;;;;;;17.20;6.00;;;4.20;90.40;;;;;;4777217;29;20078;-80
2022/05/09 01:42:35;;;;;;;18.95;6.85;;;4.40;90.40;;;;;;4792954;29;20077;-79
2022/05/09 01:45:08;;;;;;;21.58;7.32;;;4.40;90.70;;;;;;4777158;29;20069;-80
2022/05/09 01:50:43;;;;;;;20.25;6.40;;;4.40;90.70;;;;;;4806327;29;20053;-80
2022/05/09 01:56:42;;;;;;;18.80;6.70;;;4.30;90.80;;;;;;4768882;29;20054;-80
2022/05/09 01:59:18;;;;;;;18.98;6.78;;;4.80;91.40;;;;;;4777333;29;20066;-80
2022/05/09 02:02:08;;;;;;;19.83;6.50;;;4.40;91.20;;;;;;4792050;29;20094;-80
2022/05/09 02:04:53;;;;;;;18.00;6.90;;;4.20;91.10;;;;;;4778094;29;20038;-81
2022/05/09 02:07:33;;;;;;;14.88;6.32;;;4.30;91.10;;;;;;4777867;29;20050;-79
2022/05/09 02:10:26;;;;;;;12.65;5.95;;;4.30;91.10;;;;;;4790290;29;20507;-80
2022/05/09 02:13:06;;;;;;;19.45;6.13;;;4.30;91.00;;;;;;4787695;29;20499;-80
2022/05/09 02:16:05;;;;;;;13.10;6.03;;;4.30;90.80;;;;;;4810115;29;20566;-81
2022/05/09 02:19:00;;;;;;;21.00;6.35;;;4.30;91.40;;;;;;4825426;29;20046;-80
2022/05/09 02:21:37;;;;;;;12.00;5.68;;;4.20;91.40;;;;;;4811473;29;20476;-79
2022/05/09 02:24:22;;;;;;;12.27;6.00;;;4.20;91.60;;;;;;4815588;29;20073;-79
2022/05/09 02:27:37;;;;;;;;;;;;;;;;;;;;;
2022/05/09 02:30:23;;;;;;;9.13;4.57;;;4.70;91.90;;;;;;4819996;29;20042;-80
2022/05/09 02:33:13;;;;;;;11.93;4.63;;;4.20;91.10;;;;;;4849327;29;20045;-79
2022/05/09 02:35:54;;;;;;;20.45;4.43;;;4.10;91.20;;;;;;4827731;29;20564;-80
2022/05/09 02:38:38;;;;;;;;;;;;;;;;;;;;;
2022/05/09 02:41:27;;;;;;;10.35;5.03;;;4.10;91.10;;;;;;4823854;29;20046;-83
2022/05/09 02:44:07;;;;;;;9.63;4.30;;;4.10;91.70;;;;;;4827114;29;20384;-79
2022/05/09 02:46:42;;;;;;;13.50;4.88;;;4.00;91.70;;;;;;4808728;29;20047;-81
2022/05/09 02:49:18;;;;;;;9.93;4.65;;;4.00;91.40;;;;;;4809775;29;20046;-82
2022/05/09 02:51:51;;;;;;;10.10;4.47;;;4.00;91.90;;;;;;4794071;29;20046;-81
2022/05/09 02:54:23;;;;;;;11.85;4.28;;;4.60;91.60;;;;;;4809360;29;20042;-80
2022/05/09 02:56:56;;;;;;;10.20;4.20;;;3.90;91.70;;;;;;4793716;29;20049;-81
2022/05/09 02:59:36;;;;;;;11.95;5.28;;;4.30;91.60;;;;;;4808247;29;20122;-82
2022/05/09 03:02:15;;;;;;;8.20;4.60;;;3.90;91.70;;;;;;4809586;29;20128;-81
2022/05/09 03:04:48;;;;;;;10.90;4.72;;;3.80;91.50;;;;;;4809013;29;20046;-81
2022/05/09 03:07:39;;;;;;;10.70;4.88;;;3.90;91.60;;;;;;4808906;29;20070;-81
2022/05/09 03:10:16;;;;;;;13.02;5.15;;;3.70;91.50;;;;;;4811866;29;20129;-81
2022/05/09 03:13:21;;;;;;;20.92;5.28;;;4.20;91.50;;;;;;4811893;29;20449;-81
2022/05/09 03:16:11;;;;;;;19.08;6.00;;;3.80;91.30;;;;;;4809260;29;20049;-81
2022/05/09 03:18:39;;;;;;;10.18;4.45;;;3.80;91.50;;;;;;4807992;29;20041;-81
2022/05/09 03:21:11;;;;;;;19.00;5.68;;;4.30;91.50;;;;;;4808202;29;20042;-81
2022/05/09 03:24:17;;;;;;;23.52;5.70;;;3.80;91.40;;;;;;4807815;29;20039;-81
2022/05/09 03:26:52;;;;;;;14.40;5.88;;;3.80;91.30;;;;;;4808556;29;20046;-81
2022/05/09 03:29:24;;;;;;;11.48;5.20;;;4.00;91.50;;;;;;4808389;29;20064;-82
2022/05/09 03:31:53;;;;;;;13.20;5.55;;;4.60;91.90;;;;;;4808766;29;20456;-80
2022/05/09 03:34:27;;;;;;;10.35;5.10;;;3.70;91.40;;;;;;4808129;29;20052;-82
2022/05/09 03:36:55;;;;;;;14.52;5.50;;;4.60;90.90;;;;;;4808931;29;20546;-82
2022/05/09 03:39:27;;;;;;;22.70;5.07;;;3.90;92.00;;;;;;4808994;29;20046;-82
2022/05/09 03:41:55;;;;;;;24.63;6.20;;;4.00;91.80;;;;;;4808157;29;20492;-82
2022/05/09 03:44:26;;;;;;;11.63;4.63;;;3.90;92.20;;;;;;4792943;29;20050;-82
2022/05/09 03:47:06;;;;;;;15.50;5.05;;;3.90;92.10;;;;;;4797280;29;20046;-81
2022/05/09 03:49:43;;;;;;;16.30;5.20;;;3.90;91.90;;;;;;4795766;29;20038;-82
2022/05/09 03:52:14;;;;;;;13.93;5.57;;;3.80;92.50;;;;;;4792717;29;20053;-82
2022/05/09 03:54:55;;;;;;;16.52;4.63;;;4.20;92.70;;;;;;4814523;29;20057;-81
2022/05/09 03:57:31;;;;;;;13.32;5.13;;;3.40;92.00;;;;;;4795659;29;20119;-81
2022/05/09 04:00:04;;;;;;;20.35;5.55;;;4.20;92.00;;;;;;4777900;29;20142;-80
2022/05/09 04:02:33;;;;;;;21.27;5.57;;;3.90;91.40;;;;;;4792054;29;20050;-80
2022/05/09 04:05:10;;;;;;;12.05;5.32;;;3.80;91.60;;;;;;4808294;29;20106;-80
2022/05/09 04:07:49;;;;;;;16.30;5.03;;;3.80;91.90;;;;;;4808712;29;20161;-81
2022/05/09 04:10:27;;;;;;;25.17;5.85;;;3.60;92.10;;;;;;4792823;29;20062;-80
2022/05/09 04:13:07;;;;;;;21.10;5.85;;;3.80;92.40;;;;;;4808043;29;20133;-80
2022/05/09 04:18:47;;;;;;;24.15;5.35;;;3.60;91.90;;;;;;4808162;29;20464;-80
2022/05/09 04:21:16;;;;;;;12.85;4.95;;;3.80;91.80;;;;;;4808386;29;20038;-80
2022/05/09 04:24:05;;;;;;;16.75;5.00;;;3.90;91.80;;;;;;4808287;29;20129;-81
2022/05/09 04:30:35;;;;;;;18.73;5.53;;;3.80;92.00;;;;;;4824430;29;20112;-81
2022/05/09 04:37:09;;;;;;;14.85;5.60;;;3.90;92.20;;;;;;4824289;29;20056;-78
2022/05/09 08:54:58;;;;;;;15.85;4.10;;;17.90;55.70;;;;;;4840504;29;20038;-78
2022/05/09 08:57:42;;;;;;;15.98;4.30;;;17.90;53.50;;;;;;4826290;29;20045;-73
2022/05/09 09:00:11;;;;;;;9.65;3.95;;;17.80;54.40;;;;;;4825919;29;20038;-71
2022/05/09 09:03:01;;;;;;;12.85;3.75;;;18.10;55.60;;;;;;4826129;29;20049;-71
2022/05/09 09:05:33;;;;;;;14.50;3.53;;;18.30;54.20;;;;;;4811313;29;20088;-71
2022/05/09 09:08:07;;;;;;;13.10;3.30;;;18.50;55.20;;;;;;4826403;29;20073;-70
2022/05/09 09:10:52;;;;;;;13.40;3.53;;;18.90;52.20;;;;;;4826296;29;20141;-73
2022/05/09 09:14:14;;;;;;;9.60;3.08;;;18.90;49.40;;;;;;4826371;29;20129;-75
2022/05/09 09:17:11;;;;;;;17.23;4.53;;;18.90;50.60;;;;;;4753443;30;20047;-74
2022/05/09 09:20:12;;;;;;;15.45;2.95;;;18.80;49.60;;;;;;4738651;30;20063;-74
2022/05/09 09:23:14;;;;;;;10.73;3.17;;;18.80;49.60;;;;;;4788686;29;20138;-71
2022/05/09 09:26:00;;;;;;;14.10;3.13;;;19.10;48.50;;;;;;4826395;29;20438;-70
2022/05/09 09:28:58;;;;;;;17.15;2.95;;;19.40;48.50;;;;;;4811050;29;20045;-71
2022/05/09 09:31:44;;;;;;;;;;;19.60;47.30;;;;;;4842672;29;20133;-71
2022/05/09 09:34:53;;;;;;;13.23;3.58;;;19.60;46.00;;;;;;4822006;29;19926;-72
2022/05/09 09:37:28;;;;;;;14.60;3.55;;;19.90;46.90;;;;;;4797876;29;20144;-73
2022/05/09 09:39:53;;;;;;;10.85;2.88;;;20.00;46.10;;;;;;4826469;29;20483;-71
2022/05/09 09:42:19;;;;;;;14.98;2.65;;;20.10;43.00;;;;;;4826026;29;20060;-71
2022/05/09 09:44:47;;;;;;;16.38;2.70;;;19.60;42.10;;;;;;4827869;29;20042;-72
2022/05/09 09:47:19;;;;;;;10.45;2.70;;;20.00;45.00;;;;;;4829114;29;20054;-72
2022/05/09 09:49:48;;;;;;;12.80;3.50;;;20.30;44.40;;;;;;4813952;29;20102;-70
2022/05/09 09:52:21;;;;;;;13.50;3.10;;;20.60;45.70;;;;;;4813440;29;20471;-71
2022/05/09 09:54:56;;;;;;;16.77;3.05;;;20.60;42.10;;;;;;4844214;29;20483;-72
2022/05/09 09:57:28;;;;;;;14.20;3.65;;;20.10;43.70;;;;;;4845338;29;20398;-72
2022/05/09 09:59:56;;;;;;;12.10;2.88;;;20.10;43.50;;;;;;4845079;29;20475;-72
2022/05/09 10:02:26;;;;;;;13.35;3.50;;;20.00;41.40;;;;;;4828694;29;20122;-72
2022/05/09 10:04:55;;;;;;;17.63;2.90;;;20.10;43.50;;;;;;4828925;29;20050;-71
2022/05/09 10:07:34;;;;;;;15.50;3.10;;;20.20;43.90;;;;;;4828692;29;20061;-71
2022/05/09 10:10:10;;;;;;;17.83;3.17;;;20.20;45.10;;;;;;4828782;29;20046;-70
2022/05/09 10:12:39;;;;;;;12.15;3.45;;;20.50;43.60;;;;;;4828783;29;20053;-71
2022/05/09 10:15:30;;;;;;;10.25;2.78;;;20.20;42.90;;;;;;4828675;29;20041;-72
2022/05/09 10:17:57;;;;;;;14.70;2.95;;;20.20;43.70;;;;;;4828713;29;20049;-72
2022/05/09 10:20:29;;;;;;;14.40;3.00;;;20.20;43.10;;;;;;4828356;29;20050;-72
2022/05/09 10:26:13;;;;;;;12.23;3.40;;;20.00;41.40;;;;;;4828363;29;20064;-72
2022/05/09 10:28:45;;;;;;;11.25;2.75;;;20.30;42.40;;;;;;4813054;29;20045;-70
2022/05/09 10:31:23;;;;;;;13.38;2.88;;;20.20;42.00;;;;;;4827831;29;20041;-72
2022/05/09 10:34:19;;;;;;;8.68;2.55;;;20.10;41.00;;;;;;4828096;29;20061;-72
2022/05/09 10:36:52;;;;;;;10.63;2.92;;;20.40;43.70;;;;;;4828133;29;20440;-72
2022/05/09 10:39:26;;;;;;;11.60;3.00;;;20.60;40.10;;;;;;4828016;29;20378;-72
2022/05/09 10:42:02;;;;;;;9.95;2.55;;;20.10;40.20;;;;;;4812976;29;20034;-72
2022/05/09 10:44:34;;;;;;;12.73;2.40;;;20.20;40.50;;;;;;4827959;29;20038;-70
2022/05/09 10:47:20;;;;;;;10.32;2.95;;;20.50;41.40;;;;;;4828018;29;20290;-72
2022/05/09 10:50:01;;;;;;;13.77;3.40;;;20.70;39.20;;;;;;4828113;29;20053;-71
2022/05/09 10:53:13;;;;;;;13.90;3.20;;;20.90;41.30;;;;;;4827712;29;20057;-71
2022/05/09 10:55:49;;;;;;;21.75;3.28;;;21.20;41.30;;;;;;4804844;29;20167;-72
2022/05/09 10:58:28;;;;;;;9.00;2.55;;;21.20;41.20;;;;;;4828188;29;20383;-71
2022/05/09 11:01:08;;;;;;;12.50;2.92;;;21.20;38.40;;;;;;4827800;29;20041;-72
2022/05/09 11:03:35;;;;;;;10.80;3.00;;;21.00;38.50;;;;;;4827676;29;20034;-70
2022/05/09 11:06:25;;;;;;;10.95;2.97;;;21.20;39.10;;;;;;4827271;29;20051;-71
2022/05/09 11:09:09;;;;;;;11.27;2.78;;;21.10;40.10;;;;;;4827104;29;20057;-70
2022/05/09 11:12:05;;;;;;;11.73;2.72;;;20.80;38.70;;;;;;4812300;29;20383;-70
2022/05/09 11:14:40;;;;;;;9.60;2.53;;;21.10;40.90;;;;;;4842422;29;20050;-71
2022/05/09 11:17:15;;;;;;;8.40;2.05;;;21.40;39.30;;;;;;4827605;29;20502;-72
2022/05/09 11:19:58;;;;;;;16.25;2.75;;;21.20;38.70;;;;;;4812627;29;20088;-71
2022/05/09 11:22:35;;;;;;;12.43;2.50;;;21.40;38.40;;;;;;4842236;29;20398;-71
2022/05/09 11:25:41;;;;;;;9.88;2.53;;;21.00;39.40;;;;;;4827089;29;20502;-72
2022/05/09 11:28:19;;;;;;;12.50;3.10;;;21.30;40.70;;;;;;4811859;29;20038;-70
2022/05/09 11:30:58;;;;;;;10.80;2.92;;;21.50;38.30;;;;;;4811690;29;20041;-71
2022/05/09 11:33:47;;;;;;;12.68;2.60;;;21.70;40.10;;;;;;4827476;29;20045;-70
2022/05/09 11:36:38;;;;;;;12.35;2.50;;;22.00;38.10;;;;;;4827458;29;20046;-71
2022/05/09 11:39:14;;;;;;;14.38;2.90;;;22.10;39.60;;;;;;4827378;29;20049;-70
2022/05/09 11:45:34;;;;;;;11.05;2.70;;;22.20;38.30;;;;;;4827440;29;20092;-72
2022/05/09 11:48:22;;;;;;;11.05;2.92;;;21.90;38.60;;;;;;4827354;29;20046;-71
2022/05/09 11:51:08;;;;;;;9.52;2.78;;;22.10;39.10;;;;;;4811703;29;20367;-71
2022/05/09 11:53:40;;;;;;;12.13;2.50;;;22.20;39.00;;;;;;4825618;29;20081;-71
2022/05/09 11:56:09;;;;;;;12.10;2.67;;;22.40;38.90;;;;;;4827142;29;20061;-71
2022/05/09 11:58:41;;;;;;;9.00;2.55;;;22.50;38.10;;;;;;4826638;29;20040;-69
2022/05/09 12:01:11;;;;;;;10.25;2.75;;;22.50;38.20;;;;;;4842018;29;20140;-69
2022/05/09 12:03:42;;;;;;;26.45;2.72;;;22.60;38.60;;;;;;4826758;29;20368;-70
2022/05/09 12:06:14;;;;;;;9.57;2.67;;;22.60;39.50;;;;;;4826531;29;20132;-74
2022/05/09 12:08:45;;;;;;;12.30;2.55;;;22.60;38.00;;;;;;4827506;29;20057;-72
2022/05/09 12:11:16;;;;;;;12.35;2.80;;;22.50;36.80;;;;;;4835859;29;20049;-71
2022/05/09 12:13:42;;;;;;;13.98;2.80;;;22.60;37.50;;;;;;4834475;29;20057;-71
2022/05/09 12:16:09;;;;;;;12.60;2.28;;;22.50;38.00;;;;;;4833065;29;20443;-72
2022/05/09 12:19:33;;;;;;;12.77;3.17;;;22.60;38.20;;;;;;4813740;29;20038;-69
2022/05/09 12:22:37;;;;;;;9.65;2.20;;;22.70;37.10;;;;;;4811971;29;20054;-71
2022/05/09 12:25:07;;;;;;;8.43;2.28;;;22.80;38.50;;;;;;4795859;29;20102;-70
2022/05/09 12:28:03;;;;;;;11.88;2.55;;;22.20;36.50;;;;;;4829967;29;20062;-70
2022/05/09 12:30:44;;;;;;;12.43;2.72;;;22.40;36.40;;;;;;4813463;29;20402;-71
2022/05/09 12:33:31;;;;;;;10.45;2.08;;;22.50;36.20;;;;;;4831463;29;20045;-70
2022/05/09 12:36:01;;;;;;;12.35;2.45;;;22.50;36.60;;;;;;4834055;29;20048;-72
2022/05/09 12:38:33;;;;;;;8.43;2.35;;;22.70;35.40;;;;;;4832407;29;20053;-71
2022/05/09 12:41:09;;;;;;;13.18;2.50;;;22.50;35.30;;;;;;4837690;29;20085;-72
2022/05/09 12:43:37;;;;;;;10.20;2.05;;;22.40;35.10;;;;;;4844626;29;20555;-72
2022/05/09 12:46:07;;;;;;;9.40;2.30;;;22.60;36.40;;;;;;4844768;29;20042;-73
2022/05/09 12:48:38;;;;;;;11.43;2.65;;;22.60;35.30;;;;;;4844758;29;20132;-73
2022/05/09 12:51:13;;;;;;;11.27;2.95;;;22.60;34.30;;;;;;4829312;29;20382;-74
2022/05/09 12:53:40;;;;;;;8.25;2.60;;;22.10;34.70;;;;;;4829152;29;20058;-74
2022/05/09 12:56:19;;;;;;;15.15;2.88;;;22.30;35.80;;;;;;4860730;29;20498;-73
2022/05/09 12:58:47;;;;;;;7.78;1.92;;;22.50;36.50;;;;;;4829198;29;20479;-74
2022/05/09 13:01:23;;;;;;;10.30;2.47;;;22.80;36.70;;;;;;4844635;29;20053;-74
2022/05/09 13:03:52;;;;;;;11.35;2.75;;;22.80;34.70;;;;;;4844669;29;20061;-74
2022/05/09 13:06:23;;;;;;;12.27;2.15;;;22.70;35.20;;;;;;4844670;29;20123;-73
2022/05/09 13:08:49;;;;;;;8.50;2.40;;;22.40;33.90;;;;;;4844477;29;20049;-73
2022/05/09 13:11:20;;;;;;;10.70;2.08;;;22.40;35.70;;;;;;4829198;29;20045;-75
2022/05/09 13:14:30;;;;;;;12.30;2.60;;;22.30;36.10;;;;;;4844671;29;20088;-74
2022/05/09 13:17:03;;;;;;;9.70;2.17;;;22.70;35.60;;;;;;4817392;29;20100;-73
2022/05/09 13:19:31;;;;;;;11.18;2.40;;;22.80;36.60;;;;;;4832924;29;20379;-72
2022/05/09 13:21:57;;;;;;;10.02;2.15;;;22.80;33.80;;;;;;4848472;29;20052;-71
2022/05/09 13:24:26;;;;;;;12.43;2.05;;;22.80;36.20;;;;;;4833373;29;20186;-72
2022/05/09 13:26:56;;;;;;;11.82;2.30;;;23.00;36.80;;;;;;4869661;29;20048;-74
2022/05/09 13:29:37;;;;;;;8.70;1.67;;;23.10;36.60;;;;;;4871792;29;20052;-71
2022/05/09 13:32:07;;;;;;;9.52;2.10;;;23.20;34.50;;;;;;4869510;29;20048;-72
2022/05/09 13:34:44;;;;;;;10.45;2.05;;;23.20;36.00;;;;;;4867673;29;20078;-72
2022/05/09 13:37:13;;;;;;;10.23;2.00;;;23.40;35.70;;;;;;4847315;29;20096;-70
2022/05/09 13:39:44;;;;;;;9.45;2.30;;;23.40;36.50;;;;;;4847821;29;20547;-70
2022/05/09 13:42:33;;;;;;;9.73;2.03;;;23.70;36.20;;;;;;4832386;29;20097;-72
2022/05/09 13:45:02;;;;;;;10.82;2.17;;;23.70;33.80;;;;;;4864002;29;20066;-72
2022/05/09 13:47:30;;;;;;;10.45;1.80;;;23.30;34.20;;;;;;4863949;29;20045;-70
2022/05/09 13:49:58;;;;;;;10.52;2.63;;;22.90;33.00;;;;;;4847305;29;20128;-72
2022/05/09 13:52:30;;;;;;;9.38;2.35;;;22.90;35.50;;;;;;4831900;29;20149;-71
2022/05/09 13:54:58;;;;;;;8.63;1.90;;;23.30;35.50;;;;;;4847454;29;20057;-72
2022/05/09 13:57:32;;;;;;;13.38;2.60;;;23.40;34.50;;;;;;4847392;29;20128;-71
2022/05/09 14:00:07;;;;;;;9.90;2.13;;;22.90;35.30;;;;;;4831889;29;20033;-71
2022/05/09 14:02:37;;;;;;;7.15;1.83;;;22.90;35.30;;;;;;4831744;29;20044;-69
2022/05/09 14:05:18;;;;;;;12.32;2.20;;;23.30;36.40;;;;;;4831819;29;20388;-69
2022/05/09 14:07:46;;;;;;;8.30;2.30;;;23.40;33.90;;;;;;4846704;29;20048;-67
2022/05/09 14:10:17;;;;;;;12.43;2.25;;;23.40;33.60;;;;;;4846699;29;20045;-69
2022/05/09 14:12:42;;;;;;;12.32;2.45;;;23.30;35.30;;;;;;4863495;29;20053;-69
2022/05/09 14:15:23;;;;;;;8.02;2.00;;;23.40;33.70;;;;;;4831874;29;20115;-70
2022/05/09 14:17:59;;;;;;;11.55;2.70;;;23.40;33.10;;;;;;4847082;29;20435;-69
2022/05/09 14:20:34;;;;;;;10.00;2.10;;;23.40;35.00;;;;;;4846855;29;20048;-69
2022/05/09 14:23:01;;;;;;;11.65;2.35;;;23.40;36.20;;;;;;4831695;29;20049;-69
2022/05/09 14:31:38;;;;;;;9.20;2.17;;;23.80;36.00;;;;;;4845825;29;20056;-70
2022/05/09 14:34:24;;;;;;;9.88;2.17;;;24.00;34.80;;;;;;4863140;29;20060;-71
2022/05/09 14:37:06;;;;;;;13.05;2.65;;;24.40;36.20;;;;;;4846840;29;20058;-71
2022/05/09 14:39:33;;;;;;;13.15;2.67;;;24.30;35.60;;;;;;4846354;29;20064;-70
2022/05/09 14:42:26;;;;;;;12.88;2.42;;;24.20;33.90;;;;;;4831568;29;20132;-72
2022/05/09 14:45:09;;;;;;;15.80;2.28;;;24.20;35.70;;;;;;4829396;29;20064;-72
2022/05/09 14:47:45;;;;;;;13.80;2.55;;;24.40;35.10;;;;;;4846722;29;20064;-72
2022/05/09 14:50:17;;;;;;;10.77;2.17;;;24.70;35.20;;;;;;4846349;29;20089;-72
2022/05/09 14:52:43;;;;;;;11.18;2.33;;;24.80;35.90;;;;;;4846175;29;20054;-72
2022/05/09 14:58:15;;;;;;;10.60;2.88;;;25.00;32.70;;;;;;4846166;29;20145;-72
2022/05/09 15:00:42;;;;;;;9.73;2.42;;;24.80;35.50;;;;;;4846325;29;20085;-72
2022/05/09 15:03:16;;;;;;;11.68;2.75;;;24.60;37.60;;;;;;4830962;29;20057;-72
2022/05/09 15:05:42;;;;;;;13.85;3.03;;;24.90;37.40;;;;;;4830721;29;20102;-72
2022/05/09 15:08:08;;;;;;;14.73;3.20;;;24.50;38.50;;;;;;4830948;29;20053;-71
2022/05/09 15:10:41;;;;;;;11.57;2.80;;;24.30;38.40;;;;;;4845890;29;20399;-72
2022/05/09 15:13:17;;;;;;;12.02;2.72;;;24.50;37.00;;;;;;4846106;29;20053;-72
2022/05/09 15:15:49;;;;;;;15.82;2.85;;;24.80;37.00;;;;;;4862380;29;20087;-72
2022/05/09 15:18:15;;;;;;;15.30;2.53;;;24.90;38.70;;;;;;4862343;29;20042;-72
2022/05/09 15:20:42;;;;;;;10.73;1.75;;;25.40;37.60;;;;;;4845824;29;20507;-72
2022/05/09 15:23:10;;;;;;;11.95;2.67;;;25.50;33.00;;;;;;4845587;29;20052;-72
2022/05/09 15:25:38;;;;;;;10.10;2.33;;;25.60;35.80;;;;;;4860789;29;20045;-72
2022/05/09 15:28:05;;;;;;;12.20;2.40;;;25.60;36.00;;;;;;4830410;29;20046;-72
2022/05/09 15:30:32;;;;;;;12.13;2.58;;;25.10;37.20;;;;;;4845202;29;20351;-72
2022/05/09 15:32:58;;;;;;;9.43;2.13;;;25.30;37.40;;;;;;4845326;29;20049;-73
2022/05/09 15:35:25;;;;;;;8.60;1.77;;;25.50;35.60;;;;;;4845421;29;20049;-74
2022/05/09 15:41:46;;;;;;;10.50;2.40;;;26.10;30.20;;;;;;4863845;29;20398;-81
2022/05/09 15:44:14;;;;;;;9.55;2.25;;;25.90;30.20;;;;;;4822588;29;20056;-75
2022/05/09 15:46:48;;;;;;;7.95;1.65;;;25.90;29.80;;;;;;4822957;29;20049;-75
2022/05/09 15:49:20;;;;;;;9.68;1.73;;;25.80;30.80;;;;;;4811714;29;20046;-76
2022/05/09 15:54:52;;;;;;;11.35;1.90;;;25.50;32.10;;;;;;4827088;29;20081;-80
2022/05/09 15:57:33;;;;;;;8.02;1.73;;;25.50;32.10;;;;;;4816533;29;20094;-80
2022/05/09 16:00:05;;;;;;;9.45;1.88;;;25.40;31.60;;;;;;4841715;29;20068;-77
2022/05/09 16:02:32;;;;;;;8.32;1.70;;;25.50;32.30;;;;;;4811564;29;20042;-76
2022/05/09 16:04:58;;;;;;;9.82;2.13;;;25.60;32.60;;;;;;4826706;29;20042;-74
2022/05/09 16:13:11;;;;;;;7.47;1.90;;;25.30;32.90;;;;;;4814214;29;20066;-77
2022/05/09 16:15:40;;;;;;;9.98;1.95;;;25.00;33.70;;;;;;4830873;29;20077;-78
2022/05/09 16:18:27;;;;;;;10.88;2.70;;;24.90;34.30;;;;;;4835813;29;20037;-76
2022/05/09 16:20:56;;;;;;;11.50;2.28;;;24.40;34.50;;;;;;4805331;29;20050;-77
2022/05/09 16:23:23;;;;;;;6.95;1.98;;;24.20;34.90;;;;;;4829025;29;20072;-78
2022/05/09 16:25:50;;;;;;;11.55;2.42;;;23.80;35.40;;;;;;4822083;29;20391;-76
2022/05/09 16:28:23;;;;;;;9.63;2.17;;;23.60;36.10;;;;;;4832839;29;20044;-76
2022/05/09 16:30:50;;;;;;;10.27;2.10;;;23.30;36.40;;;;;;4815432;29;20045;-77
2022/05/09 16:33:15;;;;;;;15.05;2.72;;;23.10;36.70;;;;;;4833079;29;20045;-76
2022/05/09 16:35:46;;;;;;;12.13;2.42;;;22.70;37.20;;;;;;4821252;29;20391;-79
2022/05/09 16:38:15;;;;;;;9.23;2.28;;;22.60;37.80;;;;;;4827854;29;20102;-76
2022/05/09 16:40:45;;;;;;;9.68;2.60;;;22.60;38.10;;;;;;4844584;29;20049;-76
2022/05/09 16:43:38;;;;;;;11.68;2.53;;;22.50;38.10;;;;;;4829073;29;20037;-74
2022/05/09 16:46:14;;;;;;;8.88;2.05;;;22.40;37.50;;;;;;4827709;29;20041;-74
2022/05/09 16:48:42;;;;;;;11.45;2.45;;;22.20;38.50;;;;;;4835463;29;20058;-75
2022/05/09 16:51:11;;;;;;;5.70;2.10;;;22.00;38.30;;;;;;4818800;29;20045;-76
2022/05/09 16:53:38;;;;;;;10.73;2.70;;;21.90;38.20;;;;;;4811768;29;20058;-74
2022/05/09 16:56:09;;;;;;;14.93;2.92;;;21.80;38.70;;;;;;4822491;29;20053;-75
2022/05/09 16:58:42;;;;;;;13.55;2.28;;;21.60;39.90;;;;;;4822843;29;20053;-75
2022/05/09 17:01:10;;;;;;;12.60;3.10;;;21.50;40.00;;;;;;4830018;29;20042;-78
2022/05/09 17:03:36;;;;;;;8.05;2.90;;;21.40;40.30;;;;;;4822811;29;20120;-74
2022/05/09 17:06:02;;;;;;;6.45;2.50;;;21.20;40.20;;;;;;4829325;29;20543;-75
2022/05/09 17:08:28;;;;;;;10.10;3.33;;;21.10;40.30;;;;;;4823789;29;20044;-72
2022/05/09 17:10:54;;;;;;;;;;;21.10;40.60;;;;;;4836923;29;20041;-73
2022/05/09 17:13:29;;;;;;;16.55;4.18;;;21.00;41.40;;;;;;4831290;29;19948;-77
2022/05/09 17:15:55;;;;;;;8.82;2.83;;;20.90;41.50;;;;;;4811926;29;20064;-75
2022/05/09 17:18:28;;;;;;;;;;;20.80;41.80;;;;;;4817313;29;20046;-75
2022/05/09 17:20:54;;;;;;;15.75;4.25;;;20.70;44.30;;;;;;4820078;29;20254;-77
2022/05/09 17:24:03;;;;;;;15.23;3.95;;;20.50;43.40;;;;;;4819080;29;20146;-76
2022/05/09 17:26:56;;;;;;;13.98;3.80;;;20.50;45.60;;;;;;4829856;29;20057;-74
2022/05/09 17:32:41;;;;;;;17.83;3.97;;;20.20;45.40;;;;;;4815012;29;20097;-74
2022/05/09 17:38:30;;;;;;;13.40;3.27;;;19.90;50.20;;;;;;4834402;29;20018;-75
2022/05/09 17:41:04;;;;;;;11.32;3.60;;;19.70;49.90;;;;;;4829355;29;20132;-76
2022/05/09 17:43:32;;;;;;;12.23;4.10;;;19.70;50.10;;;;;;4829550;29;20077;-73
2022/05/09 17:45:59;;;;;;;11.63;4.03;;;19.60;48.80;;;;;;4824678;29;20057;-75
2022/05/09 17:48:26;;;;;;;12.85;3.55;;;19.50;49.30;;;;;;4830274;29;20042;-72
2022/05/09 17:50:52;;;;;;;15.25;4.13;;;19.40;49.70;;;;;;4821014;29;20775;-73
2022/05/09 17:53:36;;;;;;;13.25;4.43;;;19.30;50.20;;;;;;4811363;29;20452;-73
2022/05/09 17:56:12;;;;;;;11.30;3.85;;;19.20;52.80;;;;;;4833825;29;20049;-75
2022/05/09 17:58:46;;;;;;;21.40;4.50;;;19.10;53.10;;;;;;4815714;29;20038;-74
2022/05/09 18:01:25;;;;;;;21.50;4.43;;;19.00;52.00;;;;;;4835000;29;20033;-72
2022/05/09 18:27:54;;;;;;;17.95;4.93;;;18.10;54.20;;;;;;5751364;23;20403;-70
2022/05/09 18:30:25;;;;;;;12.15;4.80;;;18.10;54.30;;;;;;4805251;29;20050;-76
2022/05/09 18:32:55;;;;;;;13.35;5.03;;;18.00;54.80;;;;;;4814949;29;20053;-71
2022/05/09 18:35:22;;;;;;;17.95;5.90;;;17.90;54.70;;;;;;4804954;29;20450;-73
2022/05/09 18:37:51;;;;;;;12.80;5.32;;;17.80;54.90;;;;;;4799924;29;20047;-73
2022/05/09 18:40:18;;;;;;;16.20;5.47;;;17.60;55.10;;;;;;4802834;29;20034;-72
2022/05/09 18:42:44;;;;;;;18.45;6.18;;;17.50;54.80;;;;;;4790788;29;20051;-70
2022/05/09 18:45:11;;;;;;;19.70;7.07;;;17.40;54.20;;;;;;4786240;29;20050;-70
2022/05/09 18:47:38;;;;;;;13.38;5.40;;;17.30;54.70;;;;;;4792966;29;20472;-71
2022/05/09 18:52:50;;;;;;;22.13;6.40;;;17.10;55.10;;;;;;4801015;29;20058;-73
2022/05/09 18:55:20;;;;;;;14.48;5.82;;;16.90;55.30;;;;;;4805928;29;20042;-72
2022/05/09 18:57:48;;;;;;;20.00;5.22;;;16.90;56.10;;;;;;4815591;29;20049;-70
2022/05/09 19:00:49;;;;;;;20.35;5.63;;;16.70;57.10;;;;;;4824846;29;20043;-71
2022/05/09 19:03:16;;;;;;;14.10;5.28;;;16.50;60.10;;;;;;4815533;29;20122;-73
2022/05/09 19:05:46;;;;;;;18.13;4.38;;;16.40;58.80;;;;;;4791971;29;20054;-72
2022/05/09 19:08:34;;;;;;;13.50;5.80;;;16.20;61.00;;;;;;4794717;29;20452;-74
2022/05/09 19:14:29;;;;;;;14.98;4.13;;;16.00;63.60;;;;;;4816370;29;20045;-71
2022/05/09 19:16:56;;;;;;;31.73;5.03;;;15.90;61.50;;;;;;4794227;29;20093;-70
2022/05/09 19:19:22;;;;;;;22.70;4.75;;;15.80;61.90;;;;;;4790499;29;20051;-69
2022/05/09 19:21:47;;;;;;;25.38;4.68;;;15.80;61.90;;;;;;4827982;29;20034;-70
2022/05/09 19:24:13;;;;;;;22.33;5.03;;;15.70;62.10;;;;;;4826906;29;20131;-71
2022/05/09 19:27:26;;;;;;;20.25;5.25;;;15.70;62.30;;;;;;4830745;29;20038;-78
2022/05/09 19:37:57;;;;;;;16.25;4.72;;;15.50;64.50;;;;;;4697272;30;20114;-76
2022/05/09 19:40:34;;;;;;;19.27;4.28;;;15.40;64.20;;;;;;4739318;30;20072;-76
2022/05/09 19:43:04;;;;;;;15.98;4.47;;;15.30;63.40;;;;;;4768550;30;20432;-73
2022/05/09 19:45:41;;;;;;;15.93;5.18;;;15.30;63.70;;;;;;4765321;30;20090;-74
2022/05/09 19:48:09;;;;;;;19.98;5.63;;;15.10;65.90;;;;;;4763596;30;20057;-74
2022/05/09 19:50:47;;;;;;;19.33;5.93;;;15.10;64.80;;;;;;4773724;30;20047;-74
2022/05/09 19:56:04;;;;;;;22.25;6.25;;;14.90;66.10;;;;;;4750740;30;20052;-72
2022/05/09 19:58:30;;;;;;;21.38;5.82;;;14.90;67.80;;;;;;4768588;30;20119;-75
2022/05/09 20:00:59;;;;;;;;;;;14.70;66.90;;;;;;4778315;29;20126;-82
2022/05/09 20:03:25;;;;;;;17.92;5.95;;;14.70;69.00;;;;;;4792070;29;19928;-74
2022/05/09 20:05:51;;;;;;;19.30;5.50;;;14.60;67.20;;;;;;4780248;30;20118;-71
2022/05/09 20:11:46;;;;;;;19.08;5.78;;;14.50;68.30;;;;;;4803091;29;20045;-73
2022/05/09 20:15:12;;;;;;;15.13;5.50;;;14.40;67.60;;;;;;4796519;29;20043;-82
2022/05/09 20:18:02;;;;;;;16.42;5.80;;;14.40;70.20;;;;;;4787648;29;20043;-78
2022/05/09 20:41:50;;;;;;;11.73;5.32;;;14.00;71.60;;;;;;4793484;29;20566;-77
2022/05/09 20:44:22;;;;;;;20.23;6.43;;;13.90;70.30;;;;;;4758170;29;20039;-77
2022/05/09 20:46:48;;;;;;;19.27;6.38;;;13.90;71.00;;;;;;4765986;29;20055;-79
2022/05/09 20:49:16;;;;;;;16.60;6.78;;;13.80;70.00;;;;;;4788653;29;20416;-76
2022/05/09 20:51:47;;;;;;;16.10;5.88;;;13.80;70.60;;;;;;4763565;29;20050;-75
2022/05/09 20:54:19;;;;;;;18.45;6.82;;;13.80;71.10;;;;;;4780390;29;20560;-76